地図

経路データ

SID SEASON NUMBER BASIN SUBBASIN NAME ISO_TIME NATURE LAT LON WMO_WIND WMO_PRES WMO_AGENCY TRACK_TYPE DIST2LAND LANDFALL IFLAG USA_AGENCY USA_ATCF_ID USA_LAT USA_LON USA_RECORD USA_STATUS USA_WIND USA_PRES USA_SSHS USA_R34_NE USA_R34_SE USA_R34_SW USA_R34_NW USA_R50_NE USA_R50_SE USA_R50_SW USA_R50_NW USA_R64_NE USA_R64_SE USA_R64_SW USA_R64_NW USA_POCI USA_ROCI USA_RMW USA_EYE TOKYO_LAT TOKYO_LON TOKYO_GRADE TOKYO_WIND TOKYO_PRES TOKYO_R50_DIR TOKYO_R50_LONG TOKYO_R50_SHORT TOKYO_R30_DIR TOKYO_R30_LONG TOKYO_R30_SHORT TOKYO_LAND CMA_LAT CMA_LON CMA_CAT CMA_WIND CMA_PRES HKO_LAT HKO_LON HKO_CAT HKO_WIND HKO_PRES NEWDELHI_LAT NEWDELHI_LON NEWDELHI_GRADE NEWDELHI_WIND NEWDELHI_PRES NEWDELHI_CI NEWDELHI_DP NEWDELHI_POCI REUNION_LAT REUNION_LON REUNION_TYPE REUNION_WIND REUNION_PRES REUNION_TNUM REUNION_CI REUNION_RMW REUNION_R34_NE REUNION_R34_SE REUNION_R34_SW REUNION_R34_NW REUNION_R50_NE REUNION_R50_SE REUNION_R50_SW REUNION_R50_NW REUNION_R64_NE REUNION_R64_SE REUNION_R64_SW REUNION_R64_NW BOM_LAT BOM_LON BOM_TYPE BOM_WIND BOM_PRES BOM_TNUM BOM_CI BOM_RMW BOM_R34_NE BOM_R34_SE BOM_R34_SW BOM_R34_NW BOM_R50_NE BOM_R50_SE BOM_R50_SW BOM_R50_NW BOM_R64_NE BOM_R64_SE BOM_R64_SW BOM_R64_NW BOM_ROCI BOM_POCI BOM_EYE BOM_POS_METHOD BOM_PRES_METHOD NADI_LAT NADI_LON NADI_CAT NADI_WIND NADI_PRES WELLINGTON_LAT WELLINGTON_LON WELLINGTON_WIND WELLINGTON_PRES DS824_LAT DS824_LON DS824_STAGE DS824_WIND DS824_PRES TD9636_LAT TD9636_LON TD9636_STAGE TD9636_WIND TD9636_PRES TD9635_LAT TD9635_LON TD9635_WIND TD9635_PRES TD9635_ROCI NEUMANN_LAT NEUMANN_LON NEUMANN_CLASS NEUMANN_WIND NEUMANN_PRES MLC_LAT MLC_LON MLC_CLASS MLC_WIND MLC_PRES USA_GUST BOM_GUST BOM_GUST_PER REUNION_GUST REUNION_GUST_PER USA_SEAHGT USA_SEARAD_NE USA_SEARAD_SE USA_SEARAD_SW USA_SEARAD_NW STORM_SPEED STORM_DIR
1939227N31298 1939 51 NA NA NOT_NAMED 1939-08-15 00:00:00 TS 31.4000 -62.0000 30 hurdat_atl main 1339 1317 O_____________ hurdat_atl AL031939 31.4000 -62.0000 TD 30 -1 5 306
1939227N31298 1939 51 NA NA NOT_NAMED 1939-08-15 03:00:00 TS 31.5501 -62.2449 main 1312 1282 P_____________ AL031939 31.5501 -62.2449 TD 30 -1 5 305
1939227N31298 1939 51 NA NA NOT_NAMED 1939-08-15 06:00:00 TS 31.7000 -62.5000 30 hurdat_atl main 1282 1251 O_____________ hurdat_atl AL031939 31.7000 -62.5000 TD 30 -1 5 304
1939227N31298 1939 51 NA NA NOT_NAMED 1939-08-15 09:00:00 TS 31.8500 -62.7650 main 1247 1225 P_____________ AL031939 31.8500 -62.7650 TD 32 -1 5 305
1939227N31298 1939 51 NA NA NOT_NAMED 1939-08-15 12:00:00 TS 32.0000 -63.0000 35 hurdat_atl main 1225 1203 O_____________ hurdat_atl AL031939 32.0000 -63.0000 TS 35 0 5 311
1939227N31298 1939 51 NA NA NOT_NAMED 1939-08-15 15:00:00 TS 32.1499 -63.1651 main 1203 1186 P_____________ AL031939 32.1499 -63.1651 TS 35 0 4 320
1939227N31298 1939 51 NA NA NOT_NAMED 1939-08-15 18:00:00 TS 32.3000 -63.3000 35 hurdat_atl main 1186 1173 O_____________ hurdat_atl AL031939 32.3000 -63.3000 TS 35 0 4 321
1939227N31298 1939 51 NA NA NOT_NAMED 1939-08-15 21:00:00 TS 32.4575 -63.4575 main 1160 1147 P_____________ AL031939 32.4575 -63.4575 TS 35 0 4 320
1939227N31298 1939 51 NA NA NOT_NAMED 1939-08-16 00:00:00 TS 32.6000 -63.6000 35 hurdat_atl main 1147 1135 O_____________ hurdat_atl AL031939 32.6000 -63.6000 TS 35 0 3 320
1939227N31298 1939 51 NA NA NOT_NAMED 1939-08-16 03:00:00 TS 32.7075 -63.7076 main 1135 1122 P_____________ AL031939 32.7075 -63.7076 TS 35 0 3 320
1939227N31298 1939 51 NA NA NOT_NAMED 1939-08-16 06:00:00 TS 32.8000 -63.8000 35 hurdat_atl main 1122 1109 O_____________ hurdat_atl AL031939 32.8000 -63.8000 TS 35 0 3 320
1939227N31298 1939 51 NA NA NOT_NAMED 1939-08-16 09:00:00 TS 32.9075 -63.9000 main 1109 1097 P_____________ AL031939 32.9075 -63.9000 TS 35 0 3 320
1939227N31298 1939 51 NA NA NOT_NAMED 1939-08-16 12:00:00 TS 33.0000 -64.0000 35 hurdat_atl main 1097 1084 O_____________ hurdat_atl AL031939 33.0000 -64.0000 TS 35 0 2 313
1939227N31298 1939 51 NA NA NOT_NAMED 1939-08-16 15:00:00 TS 33.0650 -64.1000 main 1084 1076 P_____________ AL031939 33.0650 -64.1000 TS 35 0 2 301
1939227N31298 1939 51 NA NA NOT_NAMED 1939-08-16 18:00:00 TS 33.1000 -64.2000 35 hurdat_atl main 1076 1067 O_____________ hurdat_atl AL031939 33.1000 -64.2000 TS 35 0 2 282
1939227N31298 1939 51 NA NA NOT_NAMED 1939-08-16 21:00:00 TS 33.1000 -64.3000 main 1067 1058 P_____________ AL031939 33.1000 -64.3000 TS 35 0 2 270
1939227N31298 1939 51 NA NA NOT_NAMED 1939-08-17 00:00:00 TS 33.1000 -64.4000 35 hurdat_atl main 1058 1049 O_____________ hurdat_atl AL031939 33.1000 -64.4000 TS 35 0 2 279
1939227N31298 1939 51 NA NA NOT_NAMED 1939-08-17 03:00:00 TS 33.1275 -64.5224 main 1049 1037 P_____________ AL031939 33.1275 -64.5224 TS 37 0 2 301
1939227N31298 1939 51 NA NA NOT_NAMED 1939-08-17 06:00:00 TS 33.2000 -64.6000 40 hurdat_atl main 1037 1033 O_____________ hurdat_atl AL031939 33.2000 -64.6000 TS 40 0 2 343
1939227N31298 1939 51 NA NA NOT_NAMED 1939-08-17 09:00:00 TS 33.3124 -64.5948 main 1033 1030 P_____________ AL031939 33.3124 -64.5948 TS 42 0 3 14
1939227N31298 1939 51 NA NA NOT_NAMED 1939-08-17 12:00:00 TS 33.5000 -64.5000 45 hurdat_atl main 1032 1016 O_____________ hurdat_atl AL031939 33.5000 -64.5000 TS 45 0 5 27
1939227N31298 1939 51 NA NA NOT_NAMED 1939-08-17 15:00:00 TS 33.7475 -64.3298 main 1021 990 P_____________ AL031939 33.7475 -64.3298 TS 47 0 7 29
1939227N31298 1939 51 NA NA NOT_NAMED 1939-08-17 18:00:00 TS 34.1000 -64.1000 50 hurdat_atl main 990 961 O_____________ hurdat_atl AL031939 34.1000 -64.1000 TS 50 0 9 26
1939227N31298 1939 51 NA NA NOT_NAMED 1939-08-17 21:00:00 TS 34.5399 -63.8719 main 961 920 P_____________ AL031939 34.5399 -63.8719 TS 52 0 11 22
1939227N31298 1939 51 NA NA NOT_NAMED 1939-08-18 00:00:00 TS 35.1000 -63.6000 55 hurdat_atl main 920 883 O_____________ hurdat_atl AL031939 35.1000 -63.6000 TS 55 0 13 22
1939227N31298 1939 51 NA NA NOT_NAMED 1939-08-18 03:00:00 TS 35.7624 -63.2795 main 873 805 P_____________ AL031939 35.7624 -63.2795 TS 55 0 15 22
1939227N31298 1939 51 NA NA NOT_NAMED 1939-08-18 06:00:00 TS 36.5000 -62.9000 55 hurdat_atl main 805 739 O_____________ hurdat_atl AL031939 36.5000 -62.9000 TS 55 0 16 23
1939227N31298 1939 51 NA NA NOT_NAMED 1939-08-18 09:00:00 TS 37.2422 -62.4865 main 739 671 P_____________ AL031939 37.2422 -62.4865 TS 55 0 17 26
1939227N31298 1939 51 NA NA NOT_NAMED 1939-08-18 12:00:00 TS 38.0000 -62.0000 55 hurdat_atl main 671 621 O_____________ hurdat_atl AL031939 38.0000 -62.0000 TS 55 0 17 29
1939227N31298 1939 51 NA NA NOT_NAMED 1939-08-18 15:00:00 TS 38.7496 -61.4437 main 625 580 P_____________ AL031939 38.7496 -61.4437 TS 55 0 18 32
1939227N31298 1939 51 NA NA NOT_NAMED 1939-08-18 18:00:00 TS 39.5000 -60.8000 55 hurdat_atl main 580 543 O_____________ hurdat_atl AL031939 39.5000 -60.8000 TS 55 0 18 35
1939227N31298 1939 51 NA NA NOT_NAMED 1939-08-18 21:00:00 TS 40.2495 -60.0933 main 546 489 P_____________ AL031939 40.2495 -60.0933 TS 52 0 19 37
1939227N31298 1939 51 NA NA NOT_NAMED 1939-08-19 00:00:00 TS 41.0000 -59.3000 50 hurdat_atl main 489 441 O_____________ hurdat_atl AL031939 41.0000 -59.3000 TS 50 0 20 40
1939227N31298 1939 51 NA NA NOT_NAMED 1939-08-19 03:00:00 TS 41.7495 -58.4356 main 445 410 P_____________ AL031939 41.7495 -58.4356 TS 47 0 20 42
1939227N31298 1939 51 NA NA NOT_NAMED 1939-08-19 06:00:00 TS 42.5000 -57.5000 45 hurdat_atl main 414 399 O_____________ hurdat_atl AL031939 42.5000 -57.5000 TS 45 0 20 44
1939227N31298 1939 51 NA NA NOT_NAMED 1939-08-19 09:00:00 TS 43.2121 -56.5111 main 404 311 P_____________ AL031939 43.2121 -56.5111 TS 42 0 21 44
1939227N31298 1939 51 NA NA NOT_NAMED 1939-08-19 12:00:00 TS 44.0000 -55.5000 40 hurdat_atl main 311 204 O_____________ hurdat_atl AL031939 44.0000 -55.5000 TS 40 0 23 40
1939227N31298 1939 51 NA NA NOT_NAMED 1939-08-19 15:00:00 TS 44.9467 -54.4976 main 201 77 P_____________ AL031939 44.9467 -54.4976 TS 40 0 24 35
1939227N31298 1939 51 NA NA NOT_NAMED 1939-08-19 18:00:00 TS 46.0000 -53.5000 40 hurdat_atl main 66 13 O_____________ hurdat_atl AL031939 46.0000 -53.5000 TS 40 0 25 33
1939227N31298 1939 51 NA NA NOT_NAMED 1939-08-19 21:00:00 TS 47.0769 -52.4893 main 30 30 P_____________ AL031939 47.0769 -52.4893 TS 37 0 26 32
1939227N31298 1939 51 NA NA NOT_NAMED 1939-08-20 00:00:00 ET 48.2000 -51.5000 35 hurdat_atl main 96 96 O_____________ hurdat_atl AL031939 48.2000 -51.5000 EX 35 -4 26 30
1939227N31298 1939 51 NA NA NOT_NAMED 1939-08-20 03:00:00 ET 49.3271 -50.5164 main 202 202 P_____________ AL031939 49.3271 -50.5164 EX 35 -4 26 28
1939227N31298 1939 51 NA NA NOT_NAMED 1939-08-20 06:00:00 ET 50.5000 -49.6000 35 hurdat_atl main 308 308 O_____________ hurdat_atl AL031939 50.5000 -49.6000 EX 35 -4 26 25
1939227N31298 1939 51 NA NA NOT_NAMED 1939-08-20 09:00:00 ET 51.6967 -48.7634 main 424 424 P_____________ AL031939 51.6967 -48.7634 EX 35 -4 27 22
1939227N31298 1939 51 NA NA NOT_NAMED 1939-08-20 12:00:00 ET 53.0000 -48.0000 35 hurdat_atl main 513 513 O_____________ hurdat_atl AL031939 53.0000 -48.0000 EX 35 -4 29 18
1939227N31298 1939 51 NA NA NOT_NAMED 1939-08-20 15:00:00 ET 54.4560 -47.2604 main 569 464 P_____________ AL031939 54.4560 -47.2604 EX 35 -4 31 16
1939227N31298 1939 51 NA NA NOT_NAMED 1939-08-20 18:00:00 ET 56.0000 -46.5000 35 hurdat_atl main 453 O_____________ hurdat_atl AL031939 56.0000 -46.5000 EX 35 -4 32 15

IBTrACS Databaseについて

本データベースは、米国NOAAが公開する1842年以降の世界の熱帯低気圧のベストトラックデータアーカイブInternational Best Track Archive for Climate Stewardship (IBTrACS)を、ウェブで閲覧しやすい形式に変換したものです。

最終更新日:2021-11-26